createdAt,value
2019-03-30T00:02:59.062Z,3.78
2019-03-30T00:06:00.945Z,3.75
2019-03-30T00:09:06.976Z,3.71
2019-03-30T00:12:09.296Z,3.70
2019-03-30T00:15:11.181Z,3.71
2019-03-30T00:18:13.108Z,3.66
2019-03-30T00:21:14.992Z,3.66
2019-03-30T00:24:16.907Z,3.52
2019-03-30T00:27:18.896Z,3.35
2019-03-30T00:30:20.840Z,3.28
2019-03-30T00:33:22.694Z,3.30
2019-03-30T00:36:24.645Z,3.32
2019-03-30T00:39:26.535Z,3.36
2019-03-30T00:42:28.503Z,3.32
2019-03-30T00:45:30.546Z,3.21
2019-03-30T00:48:32.516Z,3.12
2019-03-30T00:51:34.351Z,3.03
2019-03-30T00:54:36.321Z,2.98
2019-03-30T00:57:38.271Z,3.04
2019-03-30T01:00:40.227Z,3.09
2019-03-30T01:03:42.117Z,3.13
2019-03-30T01:06:44.124Z,3.15
2019-03-30T01:09:46.025Z,3.13
2019-03-30T01:12:47.981Z,3.11
2019-03-30T01:15:49.861Z,3.09
2019-03-30T01:18:51.862Z,3.08
2019-03-30T01:21:56.185Z,3.02
2019-03-30T01:24:57.712Z,2.97
2019-03-30T01:27:59.745Z,2.93
2019-03-30T01:31:01.711Z,2.89
2019-03-30T01:34:03.581Z,2.90
2019-03-30T01:37:05.550Z,2.92
2019-03-30T01:40:08.066Z,2.93
2019-03-30T01:43:10.014Z,2.93
2019-03-30T01:46:12.818Z,2.90
2019-03-30T01:49:14.781Z,2.89
2019-03-30T01:52:16.706Z,2.89
2019-03-30T01:55:18.711Z,2.86
2019-03-30T01:58:20.768Z,2.86
2019-03-30T02:01:22.727Z,2.84
2019-03-30T02:04:24.588Z,2.74
2019-03-30T02:07:26.516Z,2.70
2019-03-30T02:10:43.224Z,2.70
2019-03-30T02:13:45.167Z,2.70
2019-03-30T02:16:47.060Z,2.63
2019-03-30T02:19:49.066Z,2.57
2019-03-30T02:22:50.987Z,2.50
2019-03-30T02:25:52.946Z,2.42
2019-03-30T02:28:54.935Z,2.46
2019-03-30T02:31:56.858Z,2.47
2019-03-30T02:34:58.747Z,2.42
2019-03-30T02:38:00.683Z,2.43
2019-03-30T02:41:02.664Z,2.41
2019-03-30T02:44:04.586Z,2.39
2019-03-30T02:47:06.976Z,2.36
2019-03-30T02:50:08.912Z,2.35
2019-03-30T02:53:10.752Z,2.33
2019-03-30T02:56:12.723Z,2.33
2019-03-30T02:59:14.663Z,2.33
2019-03-30T03:02:16.605Z,2.33
2019-03-30T03:05:18.459Z,2.28
2019-03-30T03:08:20.385Z,2.23
2019-03-30T03:11:22.285Z,2.22
2019-03-30T03:14:24.261Z,2.23
2019-03-30T03:17:26.182Z,2.18
2019-03-30T03:20:28.108Z,2.15
2019-03-30T03:23:29.985Z,2.07
2019-03-30T03:26:31.901Z,2.03
2019-03-30T03:29:34.029Z,2.02
2019-03-30T03:32:35.988Z,1.99
2019-03-30T03:35:37.864Z,2.01
2019-03-30T03:38:39.784Z,1.99
2019-03-30T03:41:41.672Z,1.93
2019-03-30T03:44:43.635Z,1.86
2019-03-30T03:47:45.679Z,1.74
2019-03-30T03:50:51.237Z,1.72
2019-03-30T03:53:53.335Z,1.71
2019-03-30T03:56:56.723Z,1.69
2019-03-30T04:00:01.718Z,1.62
2019-03-30T04:03:03.794Z,1.56
2019-03-30T04:06:05.779Z,1.56
2019-03-30T04:09:07.718Z,1.51
2019-03-30T04:12:11.986Z,1.41
2019-03-30T04:15:24.947Z,1.26
2019-03-30T04:18:26.867Z,1.23
2019-03-30T04:21:42.892Z,1.15
2019-03-30T04:24:32.582Z,1.16
2019-03-30T04:27:34.496Z,1.09
2019-03-30T04:30:36.504Z,1.06
2019-03-30T04:33:38.525Z,1.11
2019-03-30T04:36:40.415Z,1.15
2019-03-30T04:39:42.427Z,1.18
2019-03-30T04:42:44.268Z,1.19
2019-03-30T04:45:46.161Z,1.26
2019-03-30T04:48:48.614Z,1.31
2019-03-30T04:51:57.365Z,1.29
2019-03-30T04:54:54.434Z,1.37
2019-03-30T04:57:57.850Z,1.55
2019-03-30T05:01:00.183Z,1.76
2019-03-30T05:04:02.101Z,1.95
2019-03-30T05:07:03.976Z,2.08
2019-03-30T05:10:06.513Z,2.43
2019-03-30T05:13:08.380Z,2.85
2019-03-30T05:16:10.300Z,3.24
2019-03-30T05:19:12.184Z,3.83
2019-03-30T05:22:16.611Z,4.45
2019-03-30T05:25:17.902Z,5.40
2019-03-30T05:28:19.817Z,6.24
2019-03-30T05:31:21.900Z,6.98
2019-03-30T05:34:23.815Z,7.46
2019-03-30T05:37:25.686Z,7.74
2019-03-30T05:40:27.586Z,8.01
2019-03-30T05:43:29.428Z,8.18
2019-03-30T05:46:31.387Z,8.49
2019-03-30T05:49:33.342Z,8.97
2019-03-30T05:52:35.809Z,9.59
2019-03-30T05:55:37.916Z,9.74
2019-03-30T05:58:39.820Z,9.83
2019-03-30T06:01:41.755Z,9.93
2019-03-30T06:04:43.749Z,10.51
2019-03-30T06:07:45.634Z,10.84
2019-03-30T06:10:47.551Z,11.47
2019-03-30T06:13:49.412Z,11.81
2019-03-30T06:16:52.167Z,11.72
2019-03-30T06:19:54.207Z,12.17
2019-03-30T06:22:56.230Z,12.24
2019-03-30T06:25:59.590Z,12.21
2019-03-30T06:29:01.520Z,12.46
2019-03-30T06:32:03.663Z,12.92
2019-03-30T06:35:05.769Z,13.49
2019-03-30T06:38:07.665Z,13.76
2019-03-30T06:41:09.628Z,14.01
2019-03-30T06:44:11.550Z,14.52
2019-03-30T06:47:13.505Z,14.80
2019-03-30T06:50:16.313Z,14.85
2019-03-30T06:53:18.434Z,15.48
2019-03-30T06:56:20.466Z,16.14
2019-03-30T06:59:22.553Z,16.47
2019-03-30T07:02:25.317Z,16.48
2019-03-30T07:05:27.339Z,16.92
2019-03-30T07:08:31.508Z,16.55
2019-03-30T07:11:37.067Z,16.63
2019-03-30T07:14:40.976Z,16.84
2019-03-30T07:17:47.018Z,18.04
2019-03-30T07:20:48.916Z,18.90
2019-03-30T07:23:50.918Z,18.61
2019-03-30T07:26:52.946Z,19.33
2019-03-30T07:29:55.014Z,19.82
2019-03-30T07:32:57.085Z,20.15
2019-03-30T07:35:59.122Z,20.25
2019-03-30T07:39:01.187Z,20.68
2019-03-30T07:42:03.124Z,20.85
2019-03-30T07:45:05.734Z,20.64
2019-03-30T07:48:07.669Z,20.98
2019-03-30T07:51:09.805Z,20.96
2019-03-30T07:54:12.150Z,20.27
2019-03-30T07:57:17.080Z,20.40
2019-03-30T08:00:18.661Z,20.86
2019-03-30T08:03:20.651Z,20.93
2019-03-30T08:06:22.719Z,21.20
2019-03-30T08:09:24.646Z,21.33
2019-03-30T08:12:27.103Z,20.66
2019-03-30T08:15:29.055Z,20.09
2019-03-30T08:18:31.144Z,19.77
2019-03-30T08:21:33.776Z,19.71
2019-03-30T08:24:36.229Z,19.49
2019-03-30T08:27:38.484Z,19.26
2019-03-30T08:30:40.460Z,19.59
2019-03-30T08:33:42.966Z,19.76
2019-03-30T08:36:44.917Z,19.49
2019-03-30T08:39:46.891Z,18.93
2019-03-30T08:42:50.002Z,18.91
2019-03-30T08:45:51.912Z,19.00
2019-03-30T08:48:54.277Z,18.72
2019-03-30T08:51:56.196Z,18.61
2019-03-30T08:54:58.158Z,18.53
2019-03-30T08:58:00.430Z,18.58
2019-03-30T09:01:02.404Z,18.60
2019-03-30T09:04:04.407Z,18.60
2019-03-30T09:07:06.375Z,18.53
2019-03-30T09:10:08.465Z,18.30
2019-03-30T09:13:10.601Z,18.09
2019-03-30T09:16:12.498Z,18.01
2019-03-30T09:19:14.531Z,18.01
2019-03-30T09:22:16.445Z,18.06
2019-03-30T09:25:18.768Z,18.01
2019-03-30T09:28:20.804Z,17.75
2019-03-30T09:31:23.010Z,17.62
2019-03-30T09:34:25.048Z,17.84
2019-03-30T09:37:26.951Z,17.69
2019-03-30T09:40:28.882Z,17.70
2019-03-30T09:43:30.845Z,17.73
2019-03-30T09:46:32.735Z,17.68
2019-03-30T09:49:37.492Z,17.70
2019-03-30T09:52:39.438Z,17.76
2019-03-30T09:55:42.636Z,17.68
2019-03-30T09:58:44.495Z,17.41
2019-03-30T10:01:46.422Z,17.49
2019-03-30T10:04:48.353Z,17.58
2019-03-30T10:07:50.385Z,17.60
2019-03-30T10:10:52.335Z,17.57
2019-03-30T10:13:54.311Z,17.46
2019-03-30T10:16:57.509Z,17.57
2019-03-30T10:20:04.710Z,17.49
2019-03-30T10:23:04.527Z,17.48
2019-03-30T10:26:06.524Z,17.36
2019-03-30T10:29:08.723Z,17.36
2019-03-30T10:32:10.840Z,17.54
2019-03-30T10:35:12.943Z,17.34
2019-03-30T10:38:14.909Z,17.02
2019-03-30T10:41:16.840Z,17.11
2019-03-30T10:44:18.871Z,17.18
2019-03-30T10:47:20.858Z,17.04
2019-03-30T10:50:22.871Z,16.89
2019-03-30T10:53:24.741Z,16.94
2019-03-30T10:56:26.699Z,17.06
2019-03-30T10:59:28.606Z,16.77
2019-03-30T11:02:30.560Z,16.71
2019-03-30T11:05:32.488Z,16.93
2019-03-30T11:08:34.443Z,16.98
2019-03-30T11:11:36.411Z,17.06
2019-03-30T11:14:38.405Z,17.23
2019-03-30T11:17:40.369Z,17.43
2019-03-30T11:20:42.362Z,17.33
2019-03-30T11:23:45.485Z,17.62
2019-03-30T11:26:47.409Z,17.90
2019-03-30T11:29:49.321Z,18.15
2019-03-30T11:32:51.381Z,18.22
2019-03-30T11:35:53.466Z,18.33
2019-03-30T11:38:55.429Z,18.46
2019-03-30T11:41:58.557Z,18.58
2019-03-30T11:45:00.518Z,18.68
2019-03-30T11:48:02.399Z,18.50
2019-03-30T11:51:06.149Z,18.12
2019-03-30T11:54:08.060Z,17.96
2019-03-30T11:57:10.038Z,17.89
2019-03-30T12:00:12.170Z,18.08
2019-03-30T12:03:14.108Z,18.14
2019-03-30T12:06:16.039Z,17.88
2019-03-30T12:09:18.099Z,17.91
2019-03-30T12:12:20.039Z,18.18
2019-03-30T12:15:21.954Z,18.33
2019-03-30T12:18:23.856Z,18.30
2019-03-30T12:21:25.807Z,18.29
2019-03-30T12:24:27.739Z,18.49
2019-03-30T12:27:29.705Z,18.11
2019-03-30T12:30:31.576Z,17.95
2019-03-30T12:33:33.554Z,18.15
2019-03-30T12:36:35.705Z,18.16
2019-03-30T12:39:37.747Z,18.13
2019-03-30T12:42:39.640Z,18.14
2019-03-30T12:45:41.608Z,18.02
2019-03-30T12:48:43.549Z,17.79
2019-03-30T12:51:45.849Z,17.77
2019-03-30T12:54:47.731Z,17.99
2019-03-30T12:57:49.647Z,18.07
2019-03-30T13:00:54.619Z,18.20
2019-03-30T13:03:56.604Z,17.94
2019-03-30T13:06:58.550Z,17.89
2019-03-30T13:10:00.626Z,17.92
2019-03-30T13:13:02.528Z,17.76
2019-03-30T13:16:04.488Z,17.78
2019-03-30T13:19:06.408Z,17.91
2019-03-30T13:22:08.348Z,18.09
2019-03-30T13:25:10.223Z,18.13
2019-03-30T13:28:12.235Z,18.23
2019-03-30T13:31:14.125Z,18.07
2019-03-30T13:34:16.085Z,18.06
2019-03-30T13:37:20.043Z,17.97
2019-03-30T13:40:21.996Z,18.03
2019-03-30T13:43:23.862Z,17.86
2019-03-30T13:46:25.827Z,17.85
2019-03-30T13:49:29.632Z,17.84
2019-03-30T13:52:32.127Z,17.90
2019-03-30T13:55:34.027Z,17.99
2019-03-30T13:58:36.707Z,18.04
2019-03-30T14:01:39.008Z,17.96
2019-03-30T14:04:40.905Z,17.98
2019-03-30T14:07:44.611Z,18.00
2019-03-30T14:10:47.465Z,17.94
2019-03-30T14:13:49.386Z,17.91
2019-03-30T14:16:51.354Z,17.93
2019-03-30T14:19:53.254Z,18.02
2019-03-30T14:22:55.231Z,18.02
2019-03-30T14:25:57.107Z,17.93
2019-03-30T14:28:59.186Z,17.90
2019-03-30T14:32:01.122Z,17.94
2019-03-30T14:35:04.522Z,17.84
2019-03-30T14:38:06.549Z,17.89
2019-03-30T14:41:08.541Z,17.89
2019-03-30T14:44:10.421Z,17.90
2019-03-30T14:47:12.444Z,18.00
2019-03-30T14:50:14.320Z,17.90
2019-03-30T14:53:18.021Z,17.77
2019-03-30T14:56:20.026Z,17.84
2019-03-30T14:59:21.994Z,17.69
2019-03-30T15:02:23.933Z,17.66
2019-03-30T15:05:25.947Z,17.81
2019-03-30T15:08:27.895Z,17.82
2019-03-30T15:11:29.823Z,17.97
2019-03-30T15:14:31.697Z,18.03
2019-03-30T15:17:33.581Z,18.05
2019-03-30T15:20:35.537Z,18.14
2019-03-30T15:23:37.772Z,18.15
2019-03-30T15:26:39.659Z,18.01
2019-03-30T15:29:45.464Z,17.97
2019-03-30T15:32:46.650Z,17.85
2019-03-30T15:35:48.760Z,17.67
2019-03-30T15:38:50.838Z,17.54
2019-03-30T15:41:52.822Z,17.42
2019-03-30T15:44:54.738Z,17.41
2019-03-30T15:47:56.796Z,17.39
2019-03-30T15:50:59.916Z,17.30
2019-03-30T15:54:03.561Z,17.30
2019-03-30T15:57:13.880Z,17.21
2019-03-30T16:00:11.596Z,17.13
2019-03-30T16:03:13.498Z,17.07
2019-03-30T16:06:15.467Z,17.05
2019-03-30T16:09:17.400Z,16.98
2019-03-30T16:12:19.310Z,16.98
2019-03-30T16:15:21.160Z,16.89
2019-03-30T16:18:23.154Z,16.67
2019-03-30T16:21:25.067Z,16.60
2019-03-30T16:24:30.041Z,16.54
2019-03-30T16:27:30.881Z,16.45
2019-03-30T16:30:32.828Z,16.34
2019-03-30T16:33:34.776Z,16.21
2019-03-30T16:36:36.733Z,16.10
2019-03-30T16:39:38.823Z,15.99
2019-03-30T16:42:40.774Z,15.94
2019-03-30T16:45:42.723Z,15.74
2019-03-30T16:48:44.653Z,15.51
2019-03-30T16:51:46.583Z,15.48
2019-03-30T16:54:48.948Z,15.43
2019-03-30T16:57:51.787Z,15.33
2019-03-30T17:00:56.591Z,15.17
2019-03-30T17:03:57.640Z,14.93
2019-03-30T17:06:59.606Z,14.67
2019-03-30T17:10:05.837Z,14.45
2019-03-30T17:13:07.790Z,14.35
2019-03-30T17:16:09.872Z,14.32
2019-03-30T17:19:13.126Z,14.18
2019-03-30T17:22:15.032Z,14.12
2019-03-30T17:25:17.058Z,14.14
2019-03-30T17:28:18.946Z,14.14
2019-03-30T17:31:20.903Z,14.08
2019-03-30T17:34:22.784Z,14.04
2019-03-30T17:37:24.752Z,13.97
2019-03-30T17:40:26.734Z,13.85
2019-03-30T17:43:28.673Z,13.76
2019-03-30T17:46:30.579Z,13.55
2019-03-30T17:49:33.535Z,13.45
2019-03-30T17:52:35.477Z,13.32
2019-03-30T17:55:37.670Z,13.24
2019-03-30T17:58:39.582Z,13.22
2019-03-30T18:01:41.541Z,13.26
2019-03-30T18:04:43.434Z,13.28
2019-03-30T18:07:45.362Z,13.25
2019-03-30T18:10:47.514Z,13.21
2019-03-30T18:13:50.769Z,13.18
2019-03-30T18:16:52.626Z,13.11
2019-03-30T18:19:55.677Z,12.99
2019-03-30T18:22:59.407Z,12.92
2019-03-30T18:26:01.355Z,12.83
2019-03-30T18:29:03.352Z,12.63
2019-03-30T18:32:05.302Z,12.45
2019-03-30T18:35:07.557Z,12.33
2019-03-30T18:38:12.721Z,12.26
2019-03-30T18:41:14.186Z,12.19
2019-03-30T18:44:17.504Z,12.07
2019-03-30T18:47:19.486Z,12.02
2019-03-30T18:50:21.511Z,11.92
2019-03-30T18:53:23.581Z,11.78
2019-03-30T18:56:27.932Z,11.69
2019-03-30T18:59:30.040Z,11.62
2019-03-30T19:02:32.961Z,11.57
2019-03-30T19:05:34.889Z,11.57
2019-03-30T19:08:38.083Z,11.60
2019-03-30T19:11:41.598Z,11.57
2019-03-30T19:14:44.509Z,11.47
2019-03-30T19:17:46.409Z,11.40
2019-03-30T19:20:48.667Z,11.31
2019-03-30T19:23:52.967Z,11.24
2019-03-30T19:26:56.415Z,11.17
2019-03-30T19:29:59.678Z,11.10
2019-03-30T19:33:01.697Z,11.08
2019-03-30T19:36:10.182Z,11.09
2019-03-30T19:39:12.943Z,11.10
2019-03-30T19:42:15.949Z,11.07
2019-03-30T19:45:22.067Z,10.94
2019-03-30T19:48:25.467Z,10.76
2019-03-30T19:51:28.597Z,10.66
2019-03-30T19:54:31.814Z,10.63
2019-03-30T19:57:36.073Z,10.60
2019-03-30T20:00:38.921Z,10.56
2019-03-30T20:03:42.044Z,10.50
2019-03-30T20:06:45.876Z,10.40
2019-03-30T20:09:53.744Z,10.29
2019-03-30T20:12:58.117Z,10.19
2019-03-30T20:16:02.145Z,10.07
2019-03-30T20:19:12.213Z,10.01
2019-03-30T20:22:08.110Z,9.97
2019-03-30T20:25:12.521Z,9.94
2019-03-30T20:28:15.900Z,9.91
2019-03-30T20:31:18.587Z,9.88
2019-03-30T20:34:20.985Z,9.88
2019-03-30T20:37:24.683Z,9.81
2019-03-30T20:40:26.987Z,9.74
2019-03-30T20:43:29.020Z,9.68
2019-03-30T20:46:33.025Z,9.63
2019-03-30T20:49:36.762Z,9.59
2019-03-30T20:52:39.829Z,9.52
2019-03-30T20:55:42.274Z,9.47
2019-03-30T20:58:44.918Z,9.44
2019-03-30T21:01:49.836Z,9.36
2019-03-30T21:04:52.079Z,9.37
2019-03-30T21:07:55.102Z,9.37
2019-03-30T21:10:57.486Z,9.36
2019-03-30T21:13:59.914Z,9.31
2019-03-30T21:17:02.578Z,9.28
2019-03-30T21:20:06.833Z,9.18
2019-03-30T21:23:09.902Z,9.10
2019-03-30T21:26:14.302Z,9.01
2019-03-30T21:29:16.257Z,8.90
2019-03-30T21:32:18.208Z,8.74
2019-03-30T21:35:20.278Z,8.56
2019-03-30T21:38:22.182Z,8.41
2019-03-30T21:41:24.461Z,8.32
2019-03-30T21:44:26.749Z,8.27
2019-03-30T21:47:29.186Z,8.22
2019-03-30T21:50:31.058Z,8.12
2019-03-30T21:53:34.078Z,8.01
2019-03-30T21:56:36.018Z,7.92
2019-03-30T21:59:39.788Z,7.82
2019-03-30T22:02:41.653Z,7.71
2019-03-30T22:05:43.632Z,7.66
2019-03-30T22:08:46.895Z,7.60
2019-03-30T22:11:48.866Z,7.58
2019-03-30T22:14:50.811Z,7.55
2019-03-30T22:17:52.737Z,7.53
2019-03-30T22:20:54.616Z,7.43
2019-03-30T22:23:56.600Z,7.36
2019-03-30T22:26:58.495Z,7.28
2019-03-30T22:30:00.438Z,7.21
2019-03-30T22:33:02.343Z,7.10
2019-03-30T22:36:04.431Z,6.99
2019-03-30T22:39:06.602Z,6.91
2019-03-30T22:42:08.687Z,6.84
2019-03-30T22:45:11.133Z,6.75
2019-03-30T22:48:13.054Z,6.66
2019-03-30T22:51:15.034Z,6.56
2019-03-30T22:54:16.985Z,6.51
2019-03-30T22:57:18.873Z,6.52
2019-03-30T23:00:41.416Z,6.53
2019-03-30T23:03:45.242Z,6.56
2019-03-30T23:06:47.165Z,6.56
2019-03-30T23:09:49.063Z,6.51
2019-03-30T23:12:52.281Z,6.48
2019-03-30T23:18:55.656Z,6.47
2019-03-30T23:21:57.548Z,6.41
2019-03-30T23:24:59.508Z,6.44
2019-03-30T23:28:01.416Z,6.37
2019-03-30T23:31:03.379Z,6.37
2019-03-30T23:34:05.217Z,6.33
2019-03-30T23:37:07.155Z,6.26
2019-03-30T23:40:08.996Z,6.22
2019-03-30T23:43:10.860Z,6.21
2019-03-30T23:46:12.890Z,6.14
2019-03-30T23:49:14.824Z,6.07
2019-03-30T23:52:16.701Z,5.99
2019-03-30T23:55:18.591Z,5.96
2019-03-30T23:58:20.456Z,5.95
